Time,TemperatureF,DewpointF,PressureIn,WindDirection,WindDirectionDegrees,WindSpeedMPH,WindSpeedGustMPH,Humidity,HourlyPrecipIn,Conditions,Clouds,dailyrainin,SolarRadiationWatts/m^2,SoftwareType,DateUTC
2013-01-20 00:04:00,42.0,14.0,-100.00,North,0,14.0,29.0,32,0.00,,,0.20,0.000000,,2013-01-20 05:04:00,
2013-01-20 00:33:00,41.0,16.0,-100.00,North,0,16.0,33.0,36,0.00,,,0.20,0.000000,,2013-01-20 05:33:00,
2013-01-20 00:43:00,41.0,16.0,-100.00,North,0,16.0,33.0,36,0.00,,,0.20,0.000000,,2013-01-20 05:43:00,
2013-01-20 00:53:00,41.0,16.0,-100.00,North,0,16.0,33.0,36,0.00,,,0.20,0.000000,,2013-01-20 05:53:00,
2013-01-20 01:02:00,41.0,16.0,-100.00,North,0,16.0,33.0,36,0.00,,,0.20,0.000000,,2013-01-20 06:02:00,
2013-01-20 01:33:00,40.0,18.0,-100.00,North,0,16.0,33.0,40,0.00,,,0.20,0.000000,,2013-01-20 06:33:00,
2013-01-20 01:43:00,40.0,18.0,-100.00,North,0,16.0,33.0,40,0.00,,,0.20,0.000000,,2013-01-20 06:43:00,
2013-01-20 01:53:00,40.0,18.0,-100.00,North,0,16.0,33.0,40,0.00,,,0.20,0.000000,,2013-01-20 06:53:00,
2013-01-20 02:02:00,40.0,18.0,-100.00,North,0,16.0,33.0,40,0.00,,,0.20,0.000000,,2013-01-20 07:02:00,
2013-01-20 02:32:00,39.0,19.0,-100.00,North,0,14.0,32.0,45,0.00,,,0.20,0.000000,,2013-01-20 07:32:00,
2013-01-20 02:42:00,39.0,19.0,-100.00,North,0,14.0,32.0,45,0.00,,,0.20,0.000000,,2013-01-20 07:42:00,
2013-01-20 02:52:00,39.0,19.0,-100.00,North,0,14.0,32.0,45,0.00,,,0.20,0.000000,,2013-01-20 07:52:00,
2013-01-20 03:02:00,39.0,19.0,-100.00,North,0,14.0,32.0,45,0.00,,,0.20,0.000000,,2013-01-20 08:02:00,
2013-01-20 03:32:00,39.0,22.0,-100.00,North,0,13.0,29.0,50,0.00,,,0.20,0.000000,,2013-01-20 08:32:00,
2013-01-20 03:42:00,39.0,22.0,-100.00,North,0,13.0,29.0,50,0.00,,,0.20,0.000000,,2013-01-20 08:42:00,
2013-01-20 03:53:00,39.0,22.0,-100.00,North,0,13.0,29.0,50,0.00,,,0.20,0.000000,,2013-01-20 08:53:00,
2013-01-20 04:02:00,39.0,22.0,-100.00,North,0,13.0,29.0,50,0.00,,,0.20,0.000000,,2013-01-20 09:02:00,
2013-01-20 04:33:00,38.0,24.0,-100.00,North,0,14.0,31.0,57,0.00,,,0.20,0.000000,,2013-01-20 09:33:00,
2013-01-20 04:42:00,38.0,24.0,-100.00,North,0,14.0,31.0,57,0.00,,,0.20,0.000000,,2013-01-20 09:42:00,
2013-01-20 04:53:00,38.0,24.0,-100.00,North,0,14.0,31.0,57,0.00,,,0.20,0.000000,,2013-01-20 09:53:00,
2013-01-20 05:02:00,38.0,24.0,-100.00,North,0,14.0,31.0,57,0.00,,,0.20,0.000000,,2013-01-20 10:02:00,
2013-01-20 05:33:00,37.0,25.0,-100.00,North,0,13.0,29.0,61,0.00,,,0.20,0.000000,,2013-01-20 10:33:00,
2013-01-20 05:42:00,37.0,25.0,-100.00,North,0,13.0,29.0,61,0.00,,,0.20,0.000000,,2013-01-20 10:42:00,
2013-01-20 05:53:00,37.0,25.0,-100.00,North,0,13.0,29.0,61,0.00,,,0.20,0.000000,,2013-01-20 10:53:00,
2013-01-20 06:03:00,37.0,25.0,-100.00,North,0,13.0,29.0,61,0.00,,,0.20,0.000000,,2013-01-20 11:03:00,
2013-01-20 06:33:00,37.0,26.0,-100.00,North,0,15.0,31.0,64,0.00,,,0.20,0.000000,,2013-01-20 11:33:00,
2013-01-20 06:43:00,37.0,26.0,-100.00,North,0,15.0,31.0,64,0.00,,,0.20,0.000000,,2013-01-20 11:43:00,
2013-01-20 06:54:00,37.0,26.0,-100.00,North,0,15.0,31.0,64,0.00,,,0.20,0.000000,,2013-01-20 11:54:00,
2013-01-20 07:03:00,37.0,26.0,-100.00,North,0,15.0,31.0,64,0.00,,,0.20,0.000000,,2013-01-20 12:03:00,
2013-01-20 07:34:00,36.0,26.0,-100.00,North,0,14.0,36.0,66,0.00,,,0.20,0.000000,,2013-01-20 12:34:00,
2013-01-20 07:43:00,36.0,26.0,-100.00,North,0,14.0,36.0,66,0.00,,,0.20,0.000000,,2013-01-20 12:43:00,
2013-01-20 07:53:00,36.0,26.0,-100.00,North,0,14.0,36.0,66,0.00,,,0.20,0.000000,,2013-01-20 12:53:00,
2013-01-20 08:03:00,36.0,26.0,-100.00,North,0,14.0,36.0,66,0.00,,,0.20,0.000000,,2013-01-20 13:03:00,
2013-01-20 08:33:00,36.0,26.0,-100.00,North,0,12.0,31.0,67,0.00,,,0.20,5.000000,,2013-01-20 13:33:00,
2013-01-20 08:43:00,36.0,26.0,-100.00,North,0,12.0,31.0,67,0.00,,,0.20,5.000000,,2013-01-20 13:43:00,
2013-01-20 08:53:00,36.0,26.0,-100.00,North,0,12.0,31.0,67,0.00,,,0.20,5.000000,,2013-01-20 13:53:00,
2013-01-20 09:03:00,36.0,26.0,-100.00,North,0,12.0,31.0,67,0.00,,,0.20,5.000000,,2013-01-20 14:03:00,
2013-01-20 09:33:00,36.0,26.0,-100.00,North,0,10.0,30.0,67,0.00,,,0.20,41.000000,,2013-01-20 14:33:00,
2013-01-20 09:43:00,36.0,26.0,-100.00,North,0,10.0,30.0,67,0.00,,,0.20,41.000000,,2013-01-20 14:43:00,
2013-01-20 09:53:00,36.0,26.0,-100.00,North,0,10.0,30.0,67,0.00,,,0.20,41.000000,,2013-01-20 14:53:00,
2013-01-20 10:03:00,36.0,26.0,-100.00,North,0,10.0,30.0,67,0.00,,,0.20,41.000000,,2013-01-20 15:03:00,
2013-01-20 10:33:00,35.0,21.0,-100.00,North,0,10.0,30.0,57,0.00,,,0.20,112.000000,,2013-01-20 15:33:00,
2013-01-20 10:43:00,35.0,21.0,-100.00,North,0,10.0,30.0,57,0.00,,,0.20,112.000000,,2013-01-20 15:43:00,
2013-01-20 10:53:00,35.0,21.0,-100.00,North,0,10.0,30.0,57,0.00,,,0.20,112.000000,,2013-01-20 15:53:00,
2013-01-20 11:03:00,35.0,21.0,-100.00,North,0,10.0,30.0,57,0.00,,,0.20,112.000000,,2013-01-20 16:03:00,
2013-01-20 11:33:00,34.0,19.0,-100.00,North,0,14.0,34.0,54,0.00,,,0.19,370.000000,,2013-01-20 16:33:00,
2013-01-20 11:43:00,34.0,19.0,-100.00,North,0,14.0,34.0,54,0.00,,,0.19,370.000000,,2013-01-20 16:43:00,
2013-01-20 11:53:00,34.0,19.0,-100.00,North,0,14.0,34.0,54,0.00,,,0.19,370.000000,,2013-01-20 16:53:00,
2013-01-20 12:03:00,34.0,19.0,-100.00,North,0,14.0,34.0,54,0.00,,,0.19,370.000000,,2013-01-20 17:03:00,
2013-01-20 12:33:00,34.0,16.0,-100.00,North,0,14.0,31.0,47,0.00,,,0.13,477.000000,,2013-01-20 17:33:00,
2013-01-20 12:43:00,34.0,16.0,-100.00,North,0,14.0,31.0,47,0.00,,,0.13,477.000000,,2013-01-20 17:43:00,
2013-01-20 12:53:00,34.0,16.0,-100.00,North,0,14.0,31.0,47,0.00,,,0.13,477.000000,,2013-01-20 17:53:00,
2013-01-20 13:03:00,34.0,16.0,-100.00,North,0,14.0,31.0,47,0.00,,,0.13,477.000000,,2013-01-20 18:03:00,
2013-01-20 13:33:00,32.0,10.0,-100.00,North,0,13.0,26.0,39,0.00,,,0.09,501.000000,,2013-01-20 18:33:00,
2013-01-20 13:43:00,32.0,10.0,-100.00,North,0,13.0,26.0,39,0.00,,,0.09,501.000000,,2013-01-20 18:43:00,
2013-01-20 13:53:00,32.0,10.0,-100.00,North,0,13.0,26.0,39,0.00,,,0.09,501.000000,,2013-01-20 18:53:00,
2013-01-20 14:03:00,32.0,10.0,-100.00,North,0,13.0,26.0,39,0.00,,,0.09,501.000000,,2013-01-20 19:03:00,
2013-01-20 14:33:00,31.0,11.0,-100.00,North,0,13.0,28.0,42,0.00,,,0.06,489.000000,,2013-01-20 19:33:00,
2013-01-20 14:43:00,31.0,11.0,-100.00,North,0,13.0,28.0,42,0.00,,,0.06,489.000000,,2013-01-20 19:43:00,
2013-01-20 14:53:00,31.0,11.0,-100.00,North,0,13.0,28.0,42,0.00,,,0.06,489.000000,,2013-01-20 19:53:00,
2013-01-20 15:03:00,31.0,11.0,-100.00,North,0,13.0,28.0,42,0.00,,,0.06,489.000000,,2013-01-20 20:03:00,
2013-01-20 15:33:00,29.0,8.0,-100.00,North,0,13.0,25.0,41,0.00,,,0.02,387.000000,,2013-01-20 20:33:00,
2013-01-20 15:42:00,29.0,8.0,-100.00,North,0,13.0,25.0,41,0.00,,,0.02,387.000000,,2013-01-20 20:42:00,
2013-01-20 15:54:00,29.0,8.0,-100.00,North,0,13.0,25.0,41,0.00,,,0.02,387.000000,,2013-01-20 20:54:00,
2013-01-20 16:04:00,29.0,8.0,-100.00,North,0,13.0,25.0,41,0.00,,,0.02,387.000000,,2013-01-20 21:04:00,
2013-01-20 16:33:00,28.0,10.0,-100.00,North,0,8.0,21.0,46,0.00,,,0.00,256.000000,,2013-01-20 21:33:00,
2013-01-20 16:43:00,28.0,10.0,-100.00,North,0,8.0,21.0,46,0.00,,,0.00,256.000000,,2013-01-20 21:43:00,
2013-01-20 16:53:00,28.0,10.0,-100.00,North,0,8.0,21.0,46,0.00,,,0.00,256.000000,,2013-01-20 21:53:00,
2013-01-20 17:03:00,28.0,10.0,-100.00,North,0,8.0,21.0,46,0.00,,,0.00,256.000000,,2013-01-20 22:03:00,
2013-01-20 17:33:00,24.0,9.0,-100.00,North,0,8.0,15.0,53,0.00,,,0.00,70.000000,,2013-01-20 22:33:00,
2013-01-20 17:43:00,24.0,9.0,-100.00,North,0,8.0,15.0,53,0.00,,,0.00,70.000000,,2013-01-20 22:43:00,
2013-01-20 17:53:00,24.0,9.0,-100.00,North,0,8.0,15.0,53,0.00,,,0.00,70.000000,,2013-01-20 22:53:00,
2013-01-20 18:03:00,24.0,9.0,-100.00,North,0,8.0,15.0,53,0.00,,,0.00,70.000000,,2013-01-20 23:03:00,
2013-01-20 18:33:00,22.0,8.0,-100.00,North,0,8.0,19.0,53,0.00,,,0.00,3.000000,,2013-01-20 23:33:00,
2013-01-20 18:43:00,22.0,8.0,-100.00,North,0,8.0,19.0,53,0.00,,,0.00,3.000000,,2013-01-20 23:43:00,
2013-01-20 18:53:00,22.0,8.0,-100.00,North,0,8.0,19.0,53,0.00,,,0.00,3.000000,,2013-01-20 23:53:00,
2013-01-20 19:03:00,22.0,8.0,-100.00,North,0,8.0,19.0,53,0.00,,,0.00,3.000000,,2013-01-21 00:03:00,
2013-01-20 19:33:00,20.0,9.0,-100.00,North,0,7.0,16.0,61,0.00,,,0.00,0.000000,,2013-01-21 00:33:00,
2013-01-20 19:43:00,20.0,9.0,-100.00,North,0,7.0,16.0,61,0.00,,,0.00,0.000000,,2013-01-21 00:43:00,
2013-01-20 19:54:00,20.0,9.0,-100.00,North,0,7.0,16.0,61,0.00,,,0.00,0.000000,,2013-01-21 00:54:00,
2013-01-20 20:03:00,20.0,9.0,-100.00,North,0,7.0,16.0,61,0.00,,,0.00,0.000000,,2013-01-21 01:03:00,
2013-01-20 20:33:00,20.0,10.0,-100.00,North,0,6.0,14.0,64,0.00,,,0.00,0.000000,,2013-01-21 01:33:00,
2013-01-20 20:43:00,20.0,10.0,-100.00,North,0,6.0,14.0,64,0.00,,,0.00,0.000000,,2013-01-21 01:43:00,
2013-01-20 20:53:00,20.0,10.0,-100.00,North,0,6.0,14.0,64,0.00,,,0.00,0.000000,,2013-01-21 01:53:00,
2013-01-20 21:03:00,20.0,10.0,-100.00,North,0,6.0,14.0,64,0.00,,,0.00,0.000000,,2013-01-21 02:03:00,
2013-01-20 21:33:00,19.0,10.0,-100.00,North,0,7.0,13.0,66,0.00,,,0.00,0.000000,,2013-01-21 02:33:00,
2013-01-20 21:43:00,19.0,10.0,-100.00,North,0,7.0,13.0,66,0.00,,,0.00,0.000000,,2013-01-21 02:43:00,
2013-01-20 21:53:00,19.0,10.0,-100.00,North,0,7.0,13.0,66,0.00,,,0.00,0.000000,,2013-01-21 02:53:00,
2013-01-20 22:03:00,19.0,10.0,-100.00,North,0,7.0,13.0,66,0.00,,,0.00,0.000000,,2013-01-21 03:03:00,
2013-01-20 22:33:00,18.0,10.0,-100.00,North,0,7.0,12.0,70,0.00,,,0.00,0.000000,,2013-01-21 03:33:00,
2013-01-20 22:43:00,18.0,10.0,-100.00,North,0,7.0,12.0,70,0.00,,,0.00,0.000000,,2013-01-21 03:43:00,
2013-01-20 22:54:00,18.0,10.0,-100.00,North,0,7.0,12.0,70,0.00,,,0.00,0.000000,,2013-01-21 03:54:00,
2013-01-20 23:03:00,18.0,10.0,-100.00,North,0,7.0,12.0,70,0.00,,,0.00,0.000000,,2013-01-21 04:03:00,
2013-01-20 23:33:00,17.0,10.0,-100.00,North,0,5.0,13.0,73,0.00,,,0.00,0.000000,,2013-01-21 04:33:00,
2013-01-20 23:43:00,17.0,10.0,-100.00,North,0,5.0,13.0,73,0.00,,,0.00,0.000000,,2013-01-21 04:43:00,
2013-01-20 23:53:00,17.0,10.0,-100.00,North,0,5.0,13.0,73,0.00,,,0.00,0.000000,,2013-01-21 04:53:00,